createdAt,value
2022-12-20T00:01:45.439Z,30.08
2022-12-20T00:04:50.288Z,31.30
2022-12-20T00:07:53.777Z,33.67
2022-12-20T00:10:57.439Z,29.95
2022-12-20T00:14:03.098Z,27.42
2022-12-20T00:17:06.387Z,28.45
2022-12-20T00:20:14.871Z,29.63
2022-12-20T00:23:18.630Z,28.73
2022-12-20T00:26:27.837Z,29.52
2022-12-20T00:29:32.554Z,27.27
2022-12-20T00:32:36.308Z,27.60
2022-12-20T00:35:46.872Z,30.30
2022-12-20T00:38:52.352Z,28.10
2022-12-20T00:42:00.633Z,26.85
2022-12-20T00:45:10.384Z,27.48
2022-12-20T00:48:15.823Z,27.50
2022-12-20T00:51:26.265Z,26.85
2022-12-20T00:54:29.540Z,27.27
2022-12-20T00:57:34.882Z,30.60
2022-12-20T01:00:40.955Z,26.83
2022-12-20T01:03:47.425Z,28.25
2022-12-20T01:06:54.444Z,28.20
2022-12-20T01:10:00.293Z,27.15
2022-12-20T01:13:03.726Z,28.45
2022-12-20T01:16:15.561Z,27.52
2022-12-20T01:19:20.949Z,28.88
2022-12-20T01:22:30.573Z,29.73
2022-12-20T01:25:58.662Z,27.17
2022-12-20T01:29:22.668Z,26.75
2022-12-20T01:32:45.796Z,28.85
2022-12-20T01:36:17.273Z,28.60
2022-12-20T01:39:22.095Z,30.90
2022-12-20T01:42:26.754Z,28.85
2022-12-20T01:45:31.785Z,29.08
2022-12-20T01:48:51.268Z,29.10
2022-12-20T01:52:01.702Z,27.63
2022-12-20T01:55:13.935Z,30.52
2022-12-20T01:58:23.955Z,31.48
2022-12-20T02:01:28.029Z,31.80
2022-12-20T02:04:32.282Z,27.60
2022-12-20T02:07:38.797Z,29.58
2022-12-20T02:11:01.700Z,26.65
2022-12-20T02:14:17.828Z,27.90
2022-12-20T02:17:39.081Z,27.05
2022-12-20T02:21:13.918Z,28.95
2022-12-20T02:24:42.642Z,28.85
2022-12-20T02:28:05.339Z,27.95
2022-12-20T02:31:17.902Z,28.73
2022-12-20T02:34:24.997Z,27.02
2022-12-20T02:37:30.386Z,30.83
2022-12-20T02:40:40.669Z,31.23
2022-12-20T02:44:28.699Z,29.50
2022-12-20T02:47:57.018Z,27.73
2022-12-20T02:51:24.546Z,30.90
2022-12-20T02:54:48.158Z,30.85
2022-12-20T02:58:00.434Z,28.95
2022-12-20T03:01:13.298Z,28.13
2022-12-20T03:04:21.268Z,31.15
2022-12-20T03:07:24.538Z,30.98
2022-12-20T03:10:28.918Z,30.13
2022-12-20T03:13:32.419Z,30.42
2022-12-20T03:16:43.564Z,31.77
2022-12-20T03:19:55.368Z,29.30
2022-12-20T03:22:59.585Z,29.83
2022-12-20T03:26:04.159Z,28.55
2022-12-20T03:29:12.755Z,31.40
2022-12-20T03:32:21.155Z,30.60
2022-12-20T03:35:28.185Z,30.88
2022-12-20T03:38:34.738Z,29.40
2022-12-20T03:41:43.732Z,30.83
2022-12-20T03:44:51.405Z,32.08
2022-12-20T03:47:54.920Z,29.17
2022-12-20T03:51:02.290Z,31.92
2022-12-20T03:54:06.221Z,27.48
2022-12-20T03:57:26.996Z,27.58
2022-12-20T04:00:31.815Z,30.48
2022-12-20T04:03:54.003Z,34.40
2022-12-20T04:07:05.327Z,27.20
2022-12-20T04:10:14.435Z,35.75
2022-12-20T04:13:24.100Z,31.70
2022-12-20T04:16:30.829Z,29.92
2022-12-20T04:19:34.224Z,30.73
2022-12-20T04:22:44.953Z,29.88
2022-12-20T04:25:51.316Z,32.55
2022-12-20T04:28:58.366Z,31.83
2022-12-20T04:34:50.488Z,29.13
2022-12-20T04:38:14.029Z,30.55
2022-12-20T04:41:40.228Z,30.23
2022-12-20T04:45:10.322Z,27.80
2022-12-20T04:48:46.168Z,28.95
2022-12-20T04:51:43.680Z,30.67
2022-12-20T04:54:55.104Z,30.13
2022-12-20T04:58:07.491Z,29.20
2022-12-20T05:01:13.924Z,27.10
2022-12-20T05:04:25.332Z,27.85
2022-12-20T05:07:31.226Z,29.25
2022-12-20T05:10:39.290Z,28.33
2022-12-20T05:13:42.701Z,30.42
2022-12-20T05:16:48.527Z,27.90
2022-12-20T05:19:53.921Z,29.13
2022-12-20T05:23:17.577Z,28.85
2022-12-20T05:26:28.852Z,29.10
2022-12-20T05:29:34.948Z,29.60
2022-12-20T05:32:43.404Z,28.80
2022-12-20T05:35:46.904Z,29.30
2022-12-20T05:39:01.928Z,26.92
2022-12-20T05:42:12.524Z,27.87
2022-12-20T05:45:16.141Z,28.73
2022-12-20T05:48:28.812Z,28.63
2022-12-20T05:51:33.986Z,27.50
2022-12-20T05:55:05.771Z,27.25
2022-12-20T05:58:18.355Z,26.63
2022-12-20T06:01:34.947Z,25.00
2022-12-20T06:04:40.885Z,25.38
2022-12-20T06:07:53.860Z,27.77
2022-12-20T06:11:03.326Z,28.65
2022-12-20T06:14:10.336Z,25.90
2022-12-20T06:17:17.256Z,27.43
2022-12-20T06:20:22.702Z,27.90
2022-12-20T06:23:29.192Z,27.00
2022-12-20T06:26:47.141Z,26.58
2022-12-20T06:29:54.321Z,28.23
2022-12-20T06:33:01.854Z,26.95
2022-12-20T06:36:07.908Z,25.90
2022-12-20T06:39:11.609Z,29.23
2022-12-20T06:42:26.736Z,25.35
2022-12-20T06:45:31.738Z,28.30
2022-12-20T06:48:41.715Z,31.15
2022-12-20T06:52:11.948Z,27.27
2022-12-20T06:55:41.364Z,30.63
2022-12-20T06:59:08.167Z,29.77
2022-12-20T07:02:34.269Z,29.42
2022-12-20T07:05:57.630Z,27.23
2022-12-20T07:09:03.978Z,23.30
2022-12-20T07:12:09.862Z,29.58
2022-12-20T07:15:14.471Z,26.58
2022-12-20T07:18:17.609Z,28.48
2022-12-20T07:21:27.760Z,27.33
2022-12-20T07:24:31.059Z,25.92
2022-12-20T07:27:35.573Z,27.90
2022-12-20T07:30:40.930Z,27.02
2022-12-20T07:33:45.369Z,27.58
2022-12-20T07:36:49.156Z,26.35
2022-12-20T07:40:12.640Z,27.35
2022-12-20T07:43:25.739Z,26.90
2022-12-20T07:46:46.093Z,26.20
2022-12-20T07:49:56.391Z,26.70
2022-12-20T07:53:04.110Z,29.42
2022-12-20T07:56:12.450Z,29.17
2022-12-20T07:59:22.663Z,27.63
2022-12-20T08:02:32.587Z,26.58
2022-12-20T08:05:42.281Z,27.58
2022-12-20T08:08:48.859Z,27.77
2022-12-20T08:11:54.582Z,24.75
2022-12-20T08:14:59.518Z,25.60
2022-12-20T08:18:06.192Z,26.17
2022-12-20T08:21:10.687Z,27.00
2022-12-20T08:24:16.487Z,26.92
2022-12-20T08:27:19.781Z,28.65
2022-12-20T08:30:23.235Z,24.40
2022-12-20T08:33:27.861Z,26.27
2022-12-20T08:36:31.881Z,25.85
2022-12-20T08:39:35.305Z,26.27
2022-12-20T08:43:02.419Z,23.77
2022-12-20T08:46:31.552Z,25.13
2022-12-20T08:49:57.895Z,34.17
2022-12-20T08:53:21.221Z,30.75
2022-12-20T08:56:44.381Z,31.17
2022-12-20T08:59:47.695Z,25.60
2022-12-20T09:02:51.898Z,30.23
2022-12-20T09:05:56.953Z,26.38
2022-12-20T09:09:01.712Z,28.00
2022-12-20T09:12:05.706Z,28.08
2022-12-20T09:15:11.565Z,25.67
2022-12-20T09:18:14.998Z,24.85
2022-12-20T09:21:29.909Z,21.75
2022-12-20T09:24:33.427Z,25.80
2022-12-20T09:27:38.055Z,22.70
2022-12-20T09:30:41.315Z,24.10
2022-12-20T09:33:45.698Z,24.08
2022-12-20T09:36:50.267Z,23.27
2022-12-20T09:39:53.528Z,21.30
2022-12-20T09:42:57.336Z,22.90
2022-12-20T09:46:02.411Z,23.35
2022-12-20T09:49:05.746Z,23.58
2022-12-20T09:52:28.937Z,23.17
2022-12-20T09:55:38.049Z,23.73
2022-12-20T09:58:58.952Z,21.05
2022-12-20T10:02:19.532Z,21.95
2022-12-20T10:05:41.220Z,22.20
2022-12-20T10:08:55.608Z,21.85
2022-12-20T10:12:07.891Z,21.00
2022-12-20T10:15:31.437Z,23.45
2022-12-20T10:18:48.934Z,21.40
2022-12-20T10:22:18.604Z,22.77
2022-12-20T10:25:44.936Z,22.80
2022-12-20T10:29:08.039Z,22.65
2022-12-20T10:35:27.241Z,22.40
2022-12-20T10:38:45.748Z,21.65
2022-12-20T10:41:52.016Z,21.80
2022-12-20T10:44:56.966Z,21.65
2022-12-20T10:48:02.273Z,22.77
2022-12-20T10:51:17.234Z,21.20
2022-12-20T10:54:24.975Z,20.60
2022-12-20T10:57:33.872Z,19.13
2022-12-20T11:00:37.193Z,20.35
2022-12-20T11:03:56.267Z,28.95
2022-12-20T11:07:02.295Z,28.10
2022-12-20T11:10:21.139Z,26.95
2022-12-20T11:13:27.982Z,35.72
2022-12-20T11:16:38.087Z,22.83
2022-12-20T11:20:02.257Z,23.25
2022-12-20T11:23:24.049Z,21.35
2022-12-20T11:26:40.237Z,21.48
2022-12-20T11:30:07.716Z,20.10
2022-12-20T11:33:42.471Z,20.45
2022-12-20T11:37:18.544Z,20.45
2022-12-20T11:40:49.070Z,19.75
2022-12-20T11:44:25.414Z,19.30
2022-12-20T11:47:51.595Z,19.98
2022-12-20T11:51:03.332Z,17.52
2022-12-20T11:54:35.977Z,17.70
2022-12-20T11:58:20.363Z,18.70
2022-12-20T12:01:50.204Z,16.73
2022-12-20T12:05:21.644Z,16.55
2022-12-20T12:08:50.448Z,16.92
2022-12-20T12:12:09.613Z,17.85
2022-12-20T12:15:31.835Z,20.48
2022-12-20T12:30:37.600Z,17.83
2022-12-20T12:34:12.302Z,18.40
2022-12-20T12:37:50.180Z,17.42
2022-12-20T12:41:24.754Z,17.45
2022-12-20T12:44:44.258Z,18.70
2022-12-20T12:47:56.448Z,18.80
2022-12-20T12:51:08.444Z,16.88
2022-12-20T12:54:23.874Z,17.55
2022-12-20T12:57:28.179Z,15.55
2022-12-20T13:00:53.736Z,17.30
2022-12-20T13:04:25.077Z,17.40
2022-12-20T13:07:44.639Z,16.23
2022-12-20T13:11:29.992Z,17.35
2022-12-20T13:14:51.819Z,18.10
2022-12-20T13:18:23.606Z,19.17
2022-12-20T13:24:56.797Z,23.45
2022-12-20T13:28:50.171Z,21.43
2022-12-20T13:32:53.731Z,17.73
2022-12-20T13:36:05.140Z,16.58
2022-12-20T13:39:35.328Z,18.08
2022-12-20T13:43:01.054Z,16.38
2022-12-20T13:46:15.127Z,18.50
2022-12-20T13:49:27.041Z,19.80
2022-12-20T13:52:38.567Z,18.65
2022-12-20T13:55:44.155Z,17.23
2022-12-20T13:58:48.282Z,17.20
2022-12-20T14:01:54.872Z,18.63
2022-12-20T14:05:05.584Z,18.95
2022-12-20T14:08:16.278Z,17.50
2022-12-20T14:11:23.724Z,21.08
2022-12-20T14:14:28.605Z,15.40
2022-12-20T14:17:33.925Z,17.10
2022-12-20T14:20:38.804Z,18.42
2022-12-20T14:23:45.352Z,16.73
2022-12-20T14:27:03.345Z,18.25
2022-12-20T14:30:34.749Z,16.90
2022-12-20T14:33:47.068Z,17.45
2022-12-20T14:37:10.549Z,18.02
2022-12-20T14:40:20.604Z,19.88
2022-12-20T14:43:29.258Z,20.05
2022-12-20T14:46:36.736Z,19.08
2022-12-20T14:49:54.895Z,19.05
2022-12-20T14:52:58.831Z,19.30
2022-12-20T14:56:04.771Z,18.30
2022-12-20T14:59:20.012Z,19.10
2022-12-20T15:02:49.082Z,19.15
2022-12-20T15:05:57.776Z,18.55
2022-12-20T15:09:01.273Z,18.42
2022-12-20T15:12:11.400Z,17.05
2022-12-20T15:15:29.392Z,18.33
2022-12-20T15:18:42.142Z,20.42
2022-12-20T15:21:47.119Z,21.40
2022-12-20T15:24:53.643Z,19.23
2022-12-20T15:27:57.391Z,20.85
2022-12-20T15:31:04.720Z,18.40
2022-12-20T15:37:20.311Z,22.88
2022-12-20T15:40:24.581Z,19.60
2022-12-20T15:43:28.180Z,19.98
2022-12-20T15:46:36.555Z,18.48
2022-12-20T15:49:49.864Z,17.98
2022-12-20T15:52:57.132Z,17.13
2022-12-20T15:56:01.387Z,17.10
2022-12-20T15:59:24.448Z,17.30
2022-12-20T16:02:33.981Z,20.58
2022-12-20T16:05:40.242Z,17.27
2022-12-20T16:08:43.913Z,16.67
2022-12-20T16:11:51.475Z,17.65
2022-12-20T16:15:21.754Z,19.80
2022-12-20T16:18:46.420Z,22.98
2022-12-20T16:22:17.683Z,21.52
2022-12-20T16:25:40.844Z,23.02
2022-12-20T16:29:04.000Z,22.05
2022-12-20T16:34:45.709Z,21.95
2022-12-20T16:37:52.378Z,25.58
2022-12-20T16:40:56.415Z,24.95
2022-12-20T16:44:02.143Z,19.75
2022-12-20T16:47:06.283Z,20.08
2022-12-20T16:50:14.798Z,20.20
2022-12-20T16:53:18.031Z,22.07
2022-12-20T16:56:22.338Z,21.92
2022-12-20T16:59:26.359Z,20.67
2022-12-20T17:02:34.959Z,22.35
2022-12-20T17:05:41.778Z,21.95
2022-12-20T17:08:52.587Z,20.65
2022-12-20T17:11:56.206Z,22.38
2022-12-20T17:14:59.539Z,23.25
2022-12-20T17:18:03.151Z,22.13
2022-12-20T17:21:23.401Z,22.30
2022-12-20T17:24:26.991Z,25.17
2022-12-20T17:27:30.930Z,22.17
2022-12-20T17:30:36.999Z,21.85
2022-12-20T17:33:40.858Z,24.15
2022-12-20T17:36:46.122Z,21.60
2022-12-20T17:39:52.495Z,23.67
2022-12-20T17:43:01.515Z,24.17
2022-12-20T17:46:04.842Z,25.23
2022-12-20T17:49:09.532Z,25.10
2022-12-20T17:52:15.790Z,23.25
2022-12-20T17:55:24.149Z,22.60
2022-12-20T17:58:30.187Z,23.17
2022-12-20T18:01:38.027Z,20.98
2022-12-20T18:04:44.874Z,22.58
2022-12-20T18:07:56.804Z,21.55
2022-12-20T18:11:00.160Z,24.25
2022-12-20T18:14:04.669Z,21.40
2022-12-20T18:17:08.558Z,20.42
2022-12-20T18:20:15.814Z,23.50
2022-12-20T18:23:20.596Z,22.90
2022-12-20T18:26:26.469Z,20.95
2022-12-20T18:29:31.357Z,22.25
2022-12-20T18:32:43.630Z,23.10
2022-12-20T18:36:01.696Z,25.35
2022-12-20T18:39:09.070Z,19.40
2022-12-20T18:42:13.434Z,20.88
2022-12-20T18:45:20.100Z,18.20
2022-12-20T18:48:25.629Z,17.75
2022-12-20T18:51:36.536Z,18.90
2022-12-20T18:54:42.178Z,19.13
2022-12-20T18:58:00.702Z,19.83
2022-12-20T19:01:09.835Z,20.08
2022-12-20T19:04:24.206Z,21.20
2022-12-20T19:07:28.064Z,21.35
2022-12-20T19:10:35.923Z,20.00
2022-12-20T19:13:39.771Z,20.40
2022-12-20T19:16:43.281Z,20.83
2022-12-20T19:19:46.632Z,23.40
2022-12-20T19:22:51.285Z,21.05
2022-12-20T19:26:05.258Z,21.27
2022-12-20T19:29:11.845Z,22.35
2022-12-20T19:32:18.071Z,20.63
2022-12-20T19:35:53.639Z,22.85
2022-12-20T19:38:46.305Z,22.08
2022-12-20T19:42:22.169Z,20.27
2022-12-20T19:45:19.146Z,22.55
2022-12-20T19:48:22.716Z,22.75
2022-12-20T19:51:27.743Z,24.75
2022-12-20T19:54:31.497Z,21.95
2022-12-20T19:57:36.439Z,23.83
2022-12-20T20:00:46.601Z,24.40
2022-12-20T20:06:53.554Z,24.08
2022-12-20T20:09:57.589Z,24.25
2022-12-20T20:13:02.201Z,24.55
2022-12-20T20:16:06.645Z,20.80
2022-12-20T20:19:11.898Z,19.52
2022-12-20T20:22:22.550Z,20.15
2022-12-20T20:25:27.017Z,21.20
2022-12-20T20:28:34.044Z,18.75
2022-12-20T20:31:39.773Z,21.50
2022-12-20T20:34:44.013Z,19.48
2022-12-20T20:37:47.412Z,20.58
2022-12-20T20:40:51.716Z,22.42
2022-12-20T20:43:56.341Z,23.65
2022-12-20T20:47:00.668Z,28.83
2022-12-20T20:50:04.045Z,23.58
2022-12-20T20:53:08.310Z,24.10
2022-12-20T20:56:14.271Z,32.80
2022-12-20T20:59:19.044Z,24.42
2022-12-20T21:02:24.598Z,25.35
2022-12-20T21:08:52.328Z,26.23
2022-12-20T21:11:56.060Z,23.83
2022-12-20T21:15:21.956Z,25.10
2022-12-20T21:18:25.091Z,23.20
2022-12-20T21:21:28.937Z,23.65
2022-12-20T21:24:32.817Z,23.55
2022-12-20T21:27:36.146Z,24.70
2022-12-20T21:30:42.182Z,28.98
2022-12-20T21:33:46.218Z,23.50
2022-12-20T21:36:49.472Z,29.27
2022-12-20T21:39:52.831Z,23.55
2022-12-20T21:42:56.283Z,24.50
2022-12-20T21:46:01.377Z,26.33
2022-12-20T21:49:05.055Z,28.63
2022-12-20T21:52:08.446Z,23.98
2022-12-20T21:55:12.370Z,24.48
2022-12-20T21:58:15.956Z,23.02
2022-12-20T22:01:22.619Z,23.80
2022-12-20T22:04:25.972Z,26.52
2022-12-20T22:07:29.673Z,21.60
2022-12-20T22:10:33.052Z,22.77
2022-12-20T22:13:57.163Z,24.50
2022-12-20T22:17:21.876Z,23.65
2022-12-20T22:20:45.904Z,24.33
2022-12-20T22:24:10.633Z,23.88
2022-12-20T22:27:13.925Z,21.88
2022-12-20T22:30:17.811Z,21.75
2022-12-20T22:45:05.692Z,22.70
2022-12-20T22:48:11.328Z,24.27
2022-12-20T22:51:16.845Z,22.83
2022-12-20T22:54:20.189Z,24.50
2022-12-20T22:57:23.589Z,21.30
2022-12-20T23:00:28.397Z,21.98
2022-12-20T23:03:33.849Z,21.65
2022-12-20T23:06:37.151Z,21.20
2022-12-20T23:09:41.283Z,23.50
2022-12-20T23:13:01.874Z,23.65
2022-12-20T23:16:06.810Z,25.75
2022-12-20T23:19:11.513Z,22.73
2022-12-20T23:22:32.106Z,22.40
2022-12-20T23:25:35.638Z,24.25
2022-12-20T23:28:43.785Z,24.05
2022-12-20T23:31:48.466Z,21.83
2022-12-20T23:34:52.840Z,22.05
2022-12-20T23:37:57.719Z,22.23
2022-12-20T23:41:01.069Z,22.05
2022-12-20T23:44:06.170Z,22.98
2022-12-20T23:47:18.510Z,21.33
2022-12-20T23:50:22.291Z,22.27
2022-12-20T23:53:26.284Z,24.02
2022-12-20T23:56:29.728Z,19.58
2022-12-20T23:59:33.752Z,25.35
